Morehead-Rowan County Clyde A Thomas Regional (SYM)

 

Airport Diagram
No Airport Diagram Available
Current Weather/Forecast (IFR Conditions)
METAR KSYM 270215Z AUTO 34004KT 2SM BR OVC005 10/09 A3024 RMK AO2
TAF KSYM 270226Z 2702/2724 VRB03KT 2SM BR OVC005 FM271000 00000KT 4SM BR OVC007 FM271200 00000KT P6SM OVC010 FM271400 VRB03KT P6SM OVC020

Airport Information

All Charts
General
Chart Name View
TAKEOFF MINIMUMS
ALTERNATE MINIMUMS
TAKEOFF MINIMUMS
ALTERNATE MINIMUMS

Approaches
Chart Name Download
RNAV (GPS) RWY 02
RNAV (GPS) RWY 20
RNAV (GPS) RWY 02
RNAV (GPS) RWY 20


Airport Statistics
Departures Arrivals Local
All Collected Stats since June 2016: 1 1 0
2020 Stats: 1 1 0
October Stats: 0 0 0

Inbound Traffic (Arrivals) - 0

No inbound traffic.


Outbound Traffic (Departures) - 0

No outbound traffic.


Local Traffic (Pattern) - 0

No local traffic.